Terminal Aerodrome Forecast
Issued by NWS

Home | Current Version | Previous Version | Text Only | Print | Product List | Glossary On
Versions: 1 2 3 4 5 6 7 8 9 10 11 12 13 14 15 16
000
FTUS43 KSGF 161733
TAFBBG
TAF
KBBG 161733Z 1618/1718 22009KT P6SM SKC
     FM162300 18007KT P6SM SCT250
     FM170600 15006KT 4SM SHRA OVC015
     FM171100 14004KT 4SM SHRA OVC008
     FM171300 14004KT P6SM OVC008=

USA.gov is the U.S. government's official web portal to all federal, state and local government web resources and services.